YO8RBY-13 Weather Reports


Display with metric or nautical units.
time (UTC)temp
F
wind
direction
speed
MPH
gust
MPH
rain 1hr
in
rain 24hr
in
rain mn
in
humidity
%
barometer
mb
20190119081007 32 292 4.0 7.0 0.00 0.00 0.00 78 979.3
20190119080506 32 292 4.0 7.0 0.00 0.00 0.00 78 979.0
20190119080004 32 292 4.0 7.0 0.00 0.00 0.00 78 979.0
20190119075503 32 292 4.0 7.0 0.00 0.00 0.00 78 979.0
20190119075002 32 292 4.0 6.0 0.00 0.00 0.00 78 979.0
20190119074500 32 292 4.0 6.0 0.00 0.00 0.00 78 979.0
20190119074000 32 292 4.0 6.0 0.00 0.00 0.00 78 979.0
20190119073459 32 292 4.0 5.0 0.00 0.00 0.00 78 979.0
20190119072958 31 292 4.0 4.0 0.00 0.00 0.00 78 979.0
20190119072457 31 292 4.0 9.0 0.00 0.00 0.00 78 978.7
20190119071955 31 292 4.0 9.0 0.00 0.00 0.00 78 978.7
20190119071455 31 292 4.0 5.0 0.00 0.00 0.00 78 978.7
20190119070953 31 292 4.0 5.0 0.00 0.00 0.00 78 978.7
20190119070452 31 292 4.0 9.0 0.00 0.00 0.00 78 978.7
20190119065951 31 292 4.0 9.0 0.00 0.00 0.00 78 978.7
20190119065450 31 292 4.0 6.0 0.00 0.00 0.00 78 978.7
20190119064949 31 292 4.0 6.0 0.00 0.00 0.00 78 978.3
20190119064448 31 292 4.0 7.0 0.00 0.00 0.00 78 978.3
20190119063947 31 292 4.0 10.0 0.00 0.00 0.00 78 978.3
20190119063446 31 292 4.0 10.0 0.00 0.00 0.00 78 978.3
20190119062945 31 292 4.0 10.0 0.00 0.00 0.00 78 978.3
20190119062443 31 292 4.0 9.0 0.00 0.00 0.00 78 978.3
20190119061942 31 292 4.0 9.0 0.00 0.00 0.00 78 978.0
20190119061441 31 292 4.0 7.0 0.00 0.00 0.00 78 978.0
20190119060938 31 292 4.0 11.0 0.00 0.00 0.00 78 978.0
20190119060436 31 292 4.0 11.0 0.00 0.00 0.00 78 978.0
20190119055934 32 292 4.0 12.0 0.00 0.00 0.00 78 978.0
20190119055433 32 292 4.0 12.0 0.00 0.00 0.00 78 977.7
20190119054932 32 292 4.0 11.0 0.00 0.00 0.00 78 977.7
20190119054431 32 292 4.0 9.0 0.00 0.00 0.00 78 977.7
20190119053929 32 292 4.0 9.0 0.00 0.00 0.00 78 977.7
20190119053426 32 292 4.0 9.0 0.00 0.00 0.00 78 977.7
20190119052924 32 292 4.0 8.0 0.00 0.00 0.00 78 977.7
20190119052424 32 292 4.0 4.0 0.00 0.00 0.00 79 977.7
20190118202939 34 292 4.0 24.0 0.00 0.00 0.00 83 971.9
20190118202438 34 292 4.0 24.0 0.00 0.00 0.00 82 971.9
20190118201936 34 292 4.0 24.0 0.00 0.00 0.00 82 971.9
20190118201435 35 292 4.0 24.0 0.00 0.00 0.00 81 971.6
20190118200934 35 292 4.0 29.0 0.00 0.00 0.00 81 971.6
20190118200433 36 292 4.0 29.0 0.00 0.00 0.00 80 971.6
20190118195932 37 292 4.0 27.0 0.00 0.00 0.00 79 971.6
20190118195430 38 292 4.0 26.0 0.00 0.00 0.00 81 971.2
20190118194929 38 292 4.0 12.0 0.00 0.00 0.00 81 971.2
20190118194428 38 292 4.0 14.0 0.00 0.00 0.00 81 970.9
20190118193927 38 292 4.0 14.0 0.00 0.00 0.00 81 970.9
20190118193426 38 292 4.0 11.0 0.00 0.00 0.00 81 970.9
20190118192925 38 292 4.0 14.0 0.00 0.00 0.00 81 970.5
20190118192424 38 292 4.0 15.0 0.00 0.00 0.00 81 970.5
20190118191922 38 292 4.0 15.0 0.00 0.00 0.00 81 970.5
20190118191421 38 292 4.0 16.0 0.00 0.00 0.00 81 970.5
20190118190920 38 292 4.0 16.0 0.00 0.00 0.00 80 970.5
20190118190419 38 292 4.0 13.0 0.00 0.00 0.00 80 970.5
20190118185918 38 292 4.0 13.0 0.00 0.00 0.00 80 970.5
20190118185417 38 292 4.0 7.0 0.00 0.00 0.00 80 970.5
20190118184916 38 292 4.0 9.0 0.00 0.00 0.00 80 970.2
20190118184415 38 292 4.0 9.0 0.00 0.00 0.00 80 970.2
20190118183913 38 292 4.0 9.0 0.00 0.00 0.00 80 970.2
20190118183412 38 292 4.0 12.0 0.00 0.00 0.00 80 970.2
20190118182910 38 292 4.0 12.0 0.00 0.00 0.00 80 970.2
20190118182407 38 292 4.0 11.0 0.00 0.00 0.00 80 970.2
20190118181906 38 292 4.0 10.0 0.00 0.00 0.00 80 970.2
20190118181405 38 292 4.0 10.0 0.00 0.00 0.00 80 969.9
20190118180904 38 292 4.0 11.0 0.00 0.00 0.00 80 969.9
20190118180403 38 292 4.0 14.0 0.00 0.00 0.00 80 969.9
20190118175902 38 292 4.0 14.0 0.00 0.00 0.00 80 969.9
20190118175401 38 292 4.0 9.0 0.00 0.00 0.00 79 969.9
20190118174859 38 292 4.0 7.0 0.00 0.00 0.00 79 969.9
20190118174358 38 292 4.0 8.0 0.00 0.00 0.00 79 969.9
20190118173857 38 292 4.0 9.0 0.00 0.00 0.00 78 969.9
20190118173356 38 292 4.0 10.0 0.00 0.00 0.00 78 969.5
20190118172855 38 292 4.0 10.0 0.00 0.00 0.00 78 969.5
20190118172353 38 292 4.0 9.0 0.00 0.00 0.00 77 969.5
20190118171852 39 292 4.0 11.0 0.00 0.00 0.00 76 969.5
20190118171350 39 292 4.0 11.0 0.00 0.00 0.00 76 969.5
20190118170846 39 292 4.0 13.0 0.00 0.00 0.00 76 969.2
20190118170345 40 292 4.0 21.0 0.00 0.00 0.00 76 969.2
20190118165840 40 292 4.0 21.0 0.00 0.00 0.00 75 969.2
20190118165339 41 292 4.0 17.0 0.00 0.00 0.00 73 968.8
20190118164838 42 292 4.0 15.0 0.00 0.00 0.00 72 968.8
20190118164337 43 292 4.0 15.0 0.00 0.00 0.00 69 968.8
20190118163835 43 292 4.0 15.0 0.00 0.00 0.00 67 968.5
20190118163336 44 292 4.0 4.0 0.00 0.00 0.00 64 968.2